Time;durP1;ratioP1;P1;durP2;ratioP2;P2;SDS_P1;SDS_P2;PMS_P1;PMS_P2;Temp;Humidity;BMP_temperature;BMP_pressure;BME280_temperature;BME280_humidity;BME280_pressure;Samples;Min_cycle;Max_cycle;Signal;HPM_P1;HPM_P2
2023/06/26 00:00:05;;;;;;;1.47;0.80;;;24.60;82.50;;;;;;4955564;28;20470;-81
2023/06/26 00:02:32;;;;;;;1.47;0.90;;;24.60;82.60;;;;;;4956950;28;20569;-82
2023/06/26 00:05:02;;;;;;;1.47;0.87;;;24.60;82.90;;;;;;4958615;28;20475;-81
2023/06/26 00:07:29;;;;;;;1.47;1.00;;;24.50;82.50;;;;;;4957149;28;20569;-81
2023/06/26 00:09:55;;;;;;;1.50;0.90;;;24.50;82.90;;;;;;4955756;28;20848;-81
2023/06/26 00:12:22;;;;;;;1.50;0.90;;;24.50;83.00;;;;;;4954281;28;20493;-83
2023/06/26 00:14:50;;;;;;;1.50;1.10;;;24.50;82.90;;;;;;4956356;28;20684;-81
2023/06/26 00:17:17;;;;;;;1.47;0.90;;;24.40;82.90;;;;;;4956131;28;20482;-82
2023/06/26 00:19:44;;;;;;;1.50;0.90;;;24.40;83.10;;;;;;4957651;28;20467;-82
2023/06/26 00:22:10;;;;;;;1.50;0.90;;;24.40;83.30;;;;;;4954245;28;20500;-82
2023/06/26 00:24:37;;;;;;;1.50;0.90;;;24.30;83.30;;;;;;4956847;28;20533;-80
2023/06/26 00:27:04;;;;;;;1.47;0.90;;;24.30;83.20;;;;;;4952824;28;20484;-81
2023/06/26 00:29:31;;;;;;;1.47;0.90;;;24.30;83.30;;;;;;4957899;28;20484;-82
2023/06/26 00:31:59;;;;;;;1.47;0.90;;;24.30;83.50;;;;;;4958955;28;20477;-82
2023/06/26 00:34:26;;;;;;;1.50;0.90;;;24.30;83.00;;;;;;4963789;28;20530;-81
2023/06/26 00:36:52;;;;;;;1.40;0.80;;;24.20;83.20;;;;;;4950163;28;20899;-81
2023/06/26 00:39:19;;;;;;;1.50;0.90;;;24.20;83.00;;;;;;4959893;28;20475;-81
2023/06/26 00:41:46;;;;;;;1.50;1.00;;;24.20;83.20;;;;;;4950282;28;20490;-81
2023/06/26 00:44:12;;;;;;;1.50;0.90;;;24.20;83.10;;;;;;4960882;28;20477;-81
2023/06/26 00:46:39;;;;;;;1.50;0.90;;;24.20;82.90;;;;;;4955360;28;20850;-82
2023/06/26 00:49:07;;;;;;;1.43;0.80;;;24.10;83.70;;;;;;4969816;28;20470;-82
2023/06/26 00:51:34;;;;;;;1.43;0.90;;;24.10;83.60;;;;;;4948303;28;20474;-82
2023/06/26 00:54:01;;;;;;;1.60;1.13;;;24.10;83.90;;;;;;4960138;28;20758;-82
2023/06/26 00:56:29;;;;;;;1.60;1.40;;;24.00;83.60;;;;;;4947934;28;21041;-82
2023/06/26 00:58:56;;;;;;;1.43;0.90;;;24.00;84.20;;;;;;4962665;28;20470;-81
2023/06/26 01:01:25;;;;;;;1.60;1.10;;;24.00;84.20;;;;;;4948017;28;20474;-82
2023/06/26 01:03:53;;;;;;;1.43;0.80;;;23.90;84.90;;;;;;4962005;28;20574;-81
2023/06/26 01:06:24;;;;;;;1.47;0.93;;;23.90;85.10;;;;;;4945019;28;20477;-83
2023/06/26 01:08:51;;;;;;;1.47;0.90;;;23.90;85.10;;;;;;4963287;28;20459;-81
2023/06/26 01:11:19;;;;;;;1.47;0.90;;;23.80;85.10;;;;;;4946321;28;21035;-81
2023/06/26 01:13:47;;;;;;;1.47;0.90;;;23.80;85.20;;;;;;4964223;28;20491;-82
2023/06/26 01:16:15;;;;;;;1.50;1.00;;;23.80;85.00;;;;;;4946339;28;20482;-82
2023/06/26 01:18:43;;;;;;;1.60;1.40;;;23.80;85.00;;;;;;4962041;28;20486;-82
2023/06/26 01:21:10;;;;;;;1.50;0.90;;;23.80;85.00;;;;;;4946047;28;20496;-81
2023/06/26 01:23:57;;;;;;;1.50;0.90;;;23.80;85.10;;;;;;4964180;28;20801;-81
2023/06/26 01:26:29;;;;;;;1.50;1.00;;;23.70;85.30;;;;;;4946931;28;20485;-82
2023/06/26 01:28:57;;;;;;;1.50;0.90;;;23.70;85.30;;;;;;4961684;28;20455;-81
2023/06/26 01:31:26;;;;;;;1.50;0.90;;;23.70;85.40;;;;;;4943479;28;20558;-82
2023/06/26 01:33:53;;;;;;;1.43;0.90;;;23.70;85.30;;;;;;4964563;28;20499;-82
2023/06/26 01:36:20;;;;;;;1.40;0.80;;;23.70;85.10;;;;;;4946974;28;20920;-82
2023/06/26 01:38:46;;;;;;;2.37;1.37;;;23.70;85.30;;;;;;4961303;28;20469;-81
2023/06/26 01:41:14;;;;;;;1.50;0.90;;;23.60;85.50;;;;;;4945366;28;20478;-81
2023/06/26 01:43:55;;;;;;;1.40;0.90;;;23.60;84.80;;;;;;4960922;28;20846;-83
2023/06/26 01:46:26;;;;;;;1.47;0.80;;;23.50;85.20;;;;;;4945773;28;20473;-82
2023/06/26 01:49:00;;;;;;;1.43;0.83;;;23.50;85.40;;;;;;4961570;28;20745;-82
2023/06/26 01:51:31;;;;;;;1.47;0.90;;;23.40;85.20;;;;;;4938203;28;20493;-81
2023/06/26 01:54:00;;;;;;;1.40;0.90;;;23.40;85.90;;;;;;4964382;28;20994;-81
2023/06/26 01:56:27;;;;;;;1.47;0.90;;;23.40;85.80;;;;;;4946431;28;20992;-81
2023/06/26 01:58:57;;;;;;;1.43;0.90;;;23.40;85.80;;;;;;4961642;28;20964;-81
2023/06/26 02:01:24;;;;;;;1.47;0.90;;;23.30;85.80;;;;;;4943509;28;20474;-82
2023/06/26 02:03:51;;;;;;;1.50;0.90;;;23.30;85.80;;;;;;4962021;28;20483;-81
2023/06/26 02:06:18;;;;;;;1.47;0.90;;;23.30;85.80;;;;;;4946092;28;20493;-81
2023/06/26 02:08:44;;;;;;;1.50;0.90;;;23.30;86.30;;;;;;4960914;28;20459;-83
2023/06/26 02:11:11;;;;;;;1.40;0.90;;;23.20;85.90;;;;;;4945619;28;20488;-82
2023/06/26 02:13:38;;;;;;;1.50;1.00;;;23.20;86.20;;;;;;4963719;28;20486;-82
2023/06/26 02:16:06;;;;;;;1.47;0.90;;;23.20;87.00;;;;;;4943699;28;20474;-82
2023/06/26 02:18:36;;;;;;;1.47;0.90;;;23.10;86.80;;;;;;4963245;28;20486;-81
2023/06/26 02:21:04;;;;;;;1.47;0.90;;;23.10;87.00;;;;;;4944056;28;20498;-81
2023/06/26 02:23:31;;;;;;;1.47;0.90;;;23.00;87.90;;;;;;4964998;28;21023;-81
2023/06/26 02:25:58;;;;;;;1.47;0.90;;;23.00;87.80;;;;;;4943477;28;20463;-83
2023/06/26 02:28:24;;;;;;;1.50;1.00;;;23.00;87.70;;;;;;4963291;28;20955;-81
2023/06/26 02:30:51;;;;;;;1.43;0.90;;;23.00;87.70;;;;;;4943019;28;20471;-82
2023/06/26 02:33:19;;;;;;;1.43;0.90;;;22.90;88.10;;;;;;4968713;28;20490;-82
2023/06/26 02:35:46;;;;;;;1.50;0.90;;;22.90;87.90;;;;;;4952638;28;20942;-82
2023/06/26 02:38:13;;;;;;;1.50;0.90;;;22.80;88.20;;;;;;4941822;28;20502;-82
2023/06/26 02:40:39;;;;;;;1.50;0.90;;;22.80;88.10;;;;;;4955267;28;20928;-83
2023/06/26 02:43:07;;;;;;;1.47;0.90;;;22.80;88.10;;;;;;4975208;28;20503;-82
2023/06/26 02:45:33;;;;;;;1.50;0.90;;;22.80;87.90;;;;;;4953932;28;20463;-83
2023/06/26 02:48:00;;;;;;;1.50;0.90;;;22.70;87.70;;;;;;4956948;28;20462;-83
2023/06/26 02:50:28;;;;;;;1.47;0.90;;;22.70;87.60;;;;;;4954851;29;20463;-82
2023/06/26 02:52:55;;;;;;;1.50;0.90;;;22.70;87.90;;;;;;4960425;28;20474;-83
2023/06/26 02:55:22;;;;;;;1.50;0.90;;;22.70;88.10;;;;;;4953985;28;20470;-83
2023/06/26 02:57:48;;;;;;;1.43;0.90;;;22.70;87.70;;;;;;4960322;28;20485;-83
2023/06/26 03:00:16;;;;;;;1.50;0.90;;;22.70;88.10;;;;;;4955078;28;20471;-84
2023/06/26 03:02:43;;;;;;;1.47;0.90;;;22.70;88.60;;;;;;4958961;28;20490;-84
2023/06/26 03:05:09;;;;;;;1.50;0.90;;;22.60;88.30;;;;;;4952917;28;20495;-83
2023/06/26 03:07:38;;;;;;;1.50;0.90;;;22.60;88.40;;;;;;4957490;28;20478;-83
2023/06/26 03:10:05;;;;;;;1.50;0.90;;;22.60;88.40;;;;;;4956175;28;20463;-83
2023/06/26 03:12:32;;;;;;;1.50;0.90;;;22.60;88.10;;;;;;4957409;28;20499;-83
2023/06/26 03:14:58;;;;;;;1.47;0.90;;;22.60;88.60;;;;;;4956178;28;21106;-83
2023/06/26 03:17:25;;;;;;;1.47;0.90;;;22.60;88.50;;;;;;4956286;28;20485;-83
2023/06/26 03:19:52;;;;;;;1.47;0.90;;;22.60;88.70;;;;;;4956357;28;20906;-83
2023/06/26 03:22:19;;;;;;;1.50;0.90;;;22.60;88.80;;;;;;4958741;28;20492;-83
2023/06/26 03:24:47;;;;;;;1.50;0.90;;;22.60;89.40;;;;;;4959537;28;20473;-84
2023/06/26 03:27:13;;;;;;;1.50;0.80;;;22.50;89.40;;;;;;4955668;28;20486;-83
2023/06/26 03:29:40;;;;;;;1.50;0.90;;;22.50;89.10;;;;;;4961068;28;20474;-85
2023/06/26 03:32:08;;;;;;;1.47;0.90;;;22.50;90.40;;;;;;4957825;28;20801;-84
2023/06/26 03:34:34;;;;;;;1.47;0.90;;;22.50;90.10;;;;;;4962574;28;20470;-84
2023/06/26 03:37:01;;;;;;;1.50;0.90;;;22.50;90.90;;;;;;4957932;28;20512;-84
2023/06/26 03:39:28;;;;;;;1.43;0.90;;;22.50;90.30;;;;;;4962686;28;20489;-85
2023/06/26 03:42:00;;;;;;;1.40;0.90;;;22.40;91.70;;;;;;4956131;28;20504;-84
2023/06/26 03:44:27;;;;;;;1.50;0.90;;;22.40;91.90;;;;;;4963801;28;20903;-84
2023/06/26 03:46:54;;;;;;;1.50;0.90;;;22.40;92.20;;;;;;4957760;28;20486;-84
2023/06/26 03:49:20;;;;;;;1.47;0.90;;;22.50;93.10;;;;;;4964921;28;20855;-85
2023/06/26 03:51:47;;;;;;;1.43;0.90;;;22.50;94.10;;;;;;4956849;28;20474;-84
2023/06/26 03:54:14;;;;;;;1.40;0.90;;;22.50;93.50;;;;;;4966333;28;20529;-83
2023/06/26 03:56:41;;;;;;;1.50;0.90;;;22.50;93.60;;;;;;4953652;28;20501;-84
2023/06/26 03:59:09;;;;;;;1.50;1.00;;;22.50;94.40;;;;;;4965722;28;20490;-83
2023/06/26 04:01:37;;;;;;;1.40;0.90;;;22.60;93.80;;;;;;4955513;28;20504;-83
2023/06/26 04:04:04;;;;;;;1.47;0.90;;;22.60;94.20;;;;;;4967037;28;20482;-83
2023/06/26 04:06:31;;;;;;;1.47;0.90;;;22.60;93.90;;;;;;4958676;28;20485;-84
2023/06/26 04:08:58;;;;;;;1.50;1.00;;;22.70;94.00;;;;;;4982184;28;20491;-83
2023/06/26 04:11:25;;;;;;;1.47;0.90;;;22.70;94.20;;;;;;4968792;28;20474;-84
2023/06/26 04:13:52;;;;;;;1.47;0.90;;;22.70;94.00;;;;;;4977399;28;20514;-83
2023/06/26 04:16:21;;;;;;;1.50;0.90;;;22.70;94.40;;;;;;4950585;28;20474;-84
2023/06/26 04:18:47;;;;;;;1.43;0.90;;;22.70;94.20;;;;;;4967780;28;20487;-83
2023/06/26 04:21:14;;;;;;;1.60;1.30;;;22.70;94.20;;;;;;4950872;28;20494;-83
2023/06/26 04:23:41;;;;;;;1.50;0.90;;;22.80;94.00;;;;;;4967232;28;20487;-83
2023/06/26 04:26:14;;;;;;;1.50;0.90;;;22.80;94.20;;;;;;4950116;28;20518;-83
2023/06/26 04:28:41;;;;;;;1.50;0.90;;;22.80;94.40;;;;;;4965039;28;20503;-83
2023/06/26 04:31:08;;;;;;;1.43;0.90;;;22.80;94.30;;;;;;4947954;28;20475;-84
2023/06/26 04:33:37;;;;;;;1.43;0.90;;;22.90;94.40;;;;;;4963697;28;20497;-83
2023/06/26 04:36:04;;;;;;;1.50;0.90;;;22.90;94.10;;;;;;4945887;28;20459;-84
2023/06/26 04:38:31;;;;;;;1.47;0.90;;;23.00;94.90;;;;;;4976707;28;20490;-83
2023/06/26 04:40:58;;;;;;;1.50;0.90;;;23.00;94.30;;;;;;4942864;28;20904;-84
2023/06/26 04:43:25;;;;;;;1.60;1.27;;;23.10;95.20;;;;;;4963278;28;20486;-84
2023/06/26 04:45:51;;;;;;;1.43;0.90;;;23.10;94.90;;;;;;4945208;28;20458;-82
2023/06/26 04:48:18;;;;;;;1.40;0.83;;;23.10;95.00;;;;;;4968662;28;20486;-82
2023/06/26 04:50:52;;;;;;;1.47;0.90;;;23.20;95.00;;;;;;4959988;28;20467;-82
2023/06/26 04:53:19;;;;;;;1.47;0.90;;;23.30;94.80;;;;;;4949885;28;20474;-82
2023/06/26 04:55:46;;;;;;;1.43;0.87;;;23.40;94.40;;;;;;4958986;29;20549;-80
2023/06/26 04:58:12;;;;;;;1.40;0.83;;;23.40;94.50;;;;;;4949435;29;20490;-81
2023/06/26 05:00:42;;;;;;;1.50;0.80;;;23.50;94.40;;;;;;4955675;28;20474;-81
2023/06/26 05:03:09;;;;;;;1.40;0.90;;;23.50;94.10;;;;;;4957569;28;20487;-79
2023/06/26 05:05:36;;;;;;;1.87;1.50;;;23.60;94.00;;;;;;4950139;28;20477;-80
2023/06/26 05:08:17;;;;;;;1.47;0.90;;;23.70;93.60;;;;;;4966836;28;20486;-79
2023/06/26 05:10:45;;;;;;;1.50;1.00;;;23.70;93.70;;;;;;5025426;23;20550;-92
2023/06/26 05:16:10;;;;;;;1.47;0.90;;;23.80;93.10;;;;;;4980746;28;20470;-92
2023/06/26 05:18:37;;;;;;;1.50;1.10;;;23.80;92.90;;;;;;4997806;28;20581;-91
2023/06/26 05:21:05;;;;;;;1.40;0.87;;;23.70;92.60;;;;;;4959499;28;21076;-91
2023/06/26 05:23:34;;;;;;;1.40;0.90;;;23.70;92.70;;;;;;4985672;28;20495;-95
2023/06/26 05:26:50;;;;;;;1.47;0.90;;;23.70;93.00;;;;;;4982291;28;20465;-91
2023/06/26 05:29:20;;;;;;;1.50;0.90;;;23.60;92.50;;;;;;4920661;28;20481;-89
2023/06/26 05:31:50;;;;;;;1.50;1.10;;;23.60;92.80;;;;;;4966750;28;20525;-92
2023/06/26 05:34:20;;;;;;;1.47;0.90;;;23.50;92.60;;;;;;4974881;28;21043;-90
2023/06/26 05:36:51;;;;;;;1.80;1.20;;;23.50;92.50;;;;;;4976488;28;20662;-89
2023/06/26 05:39:20;;;;;;;1.47;0.90;;;23.50;92.70;;;;;;4996988;28;20496;-89
2023/06/26 05:45:10;;;;;;;1.50;0.90;;;23.50;92.80;;;;;;5178563;22;20530;-81
2023/06/26 05:47:37;;;;;;;1.43;0.90;;;23.60;92.80;;;;;;4986313;28;20484;-81
2023/06/26 05:50:05;;;;;;;1.43;0.90;;;23.70;91.30;;;;;;5000244;28;20492;-81
2023/06/26 05:52:33;;;;;;;1.47;0.90;;;23.70;91.90;;;;;;4980169;28;20516;-81
2023/06/26 05:55:03;;;;;;;1.47;0.90;;;23.60;91.70;;;;;;4987417;28;20469;-82
2023/06/26 05:57:31;;;;;;;1.50;0.80;;;23.50;91.90;;;;;;4979584;28;20531;-80
2023/06/26 05:59:59;;;;;;;1.50;0.90;;;23.60;92.30;;;;;;4994225;28;20527;-82
2023/06/26 06:02:26;;;;;;;1.47;0.90;;;23.80;92.30;;;;;;4976504;28;20482;-83
2023/06/26 06:04:53;;;;;;;1.43;0.80;;;24.00;91.90;;;;;;4986073;28;20480;-80
2023/06/26 06:07:23;;;;;;;1.47;0.90;;;24.20;90.70;;;;;;4984637;28;20481;-84
2023/06/26 06:09:50;;;;;;;1.50;0.90;;;24.30;90.80;;;;;;4989909;28;20461;-82
2023/06/26 06:12:19;;;;;;;1.50;1.00;;;24.30;90.20;;;;;;4977430;28;20489;-82
2023/06/26 06:14:46;;;;;;;1.43;0.90;;;24.30;90.50;;;;;;4990221;28;20465;-82
2023/06/26 06:17:14;;;;;;;1.60;1.50;;;24.30;90.30;;;;;;4973705;28;20488;-80
2023/06/26 06:19:41;;;;;;;1.50;0.90;;;24.30;90.40;;;;;;4988282;28;20489;-81
2023/06/26 06:22:08;;;;;;;1.50;0.90;;;24.40;90.60;;;;;;4975835;28;20484;-81
2023/06/26 06:24:35;;;;;;;1.50;0.90;;;24.50;90.20;;;;;;4993177;28;20455;-80
2023/06/26 06:27:02;;;;;;;1.40;0.90;;;24.60;90.00;;;;;;4976361;28;20481;-81
2023/06/26 06:29:31;;;;;;;1.50;0.90;;;24.70;89.90;;;;;;4992120;28;20468;-81
2023/06/26 06:31:58;;;;;;;1.47;0.90;;;24.60;89.40;;;;;;4978399;28;20516;-80
2023/06/26 06:34:25;;;;;;;1.47;0.80;;;24.40;89.80;;;;;;4985204;28;20463;-82
2023/06/26 06:36:52;;;;;;;1.50;0.87;;;24.30;90.10;;;;;;4982067;28;20566;-81
2023/06/26 06:39:19;;;;;;;1.47;0.90;;;24.20;91.20;;;;;;4987099;28;20575;-81
2023/06/26 06:41:46;;;;;;;1.50;0.90;;;23.90;91.20;;;;;;4977738;28;20563;-82
2023/06/26 06:44:13;;;;;;;1.50;0.90;;;23.90;92.20;;;;;;4985525;28;20472;-83
2023/06/26 06:46:41;;;;;;;1.47;0.90;;;24.10;92.20;;;;;;4980740;28;20491;-80
2023/06/26 06:49:10;;;;;;;1.50;1.10;;;24.30;91.80;;;;;;4989483;28;20541;-79
2023/06/26 06:51:37;;;;;;;1.50;1.10;;;24.60;91.50;;;;;;4976206;28;20603;-79
2023/06/26 06:54:04;;;;;;;1.47;0.80;;;24.90;90.80;;;;;;4985100;28;20539;-80
2023/06/26 06:56:31;;;;;;;1.50;0.90;;;25.20;90.00;;;;;;4978224;28;21075;-80
2023/06/26 06:58:58;;;;;;;1.50;0.90;;;25.50;88.70;;;;;;4986528;28;20500;-81
2023/06/26 07:01:25;;;;;;;1.47;0.90;;;25.60;88.20;;;;;;4978685;28;20512;-81
2023/06/26 07:03:53;;;;;;;1.50;1.00;;;25.70;87.30;;;;;;4985257;28;20472;-81
2023/06/26 07:06:20;;;;;;;1.47;0.80;;;25.80;88.00;;;;;;4979759;28;20476;-81
2023/06/26 07:08:47;;;;;;;1.47;0.90;;;25.90;87.90;;;;;;4992293;28;20464;-80
2023/06/26 07:11:15;;;;;;;1.50;0.97;;;25.90;87.50;;;;;;4980953;28;20492;-81
2023/06/26 07:13:42;;;;;;;1.47;0.80;;;25.90;87.20;;;;;;4993059;28;20464;-82
2023/06/26 07:16:11;;;;;;;1.60;1.20;;;25.80;88.00;;;;;;4984292;28;20567;-79
2023/06/26 07:18:39;;;;;;;1.50;0.80;;;25.70;87.20;;;;;;4990164;28;20501;-80
2023/06/26 07:21:08;;;;;;;1.50;0.90;;;25.40;87.70;;;;;;4981124;28;21018;-81
2023/06/26 07:23:35;;;;;;;1.47;0.83;;;25.40;88.50;;;;;;4991341;28;20475;-80
2023/06/26 07:26:02;;;;;;;1.50;0.90;;;25.40;88.80;;;;;;5001904;28;20457;-80
2023/06/26 07:28:29;;;;;;;1.47;0.80;;;25.60;88.70;;;;;;5003176;28;20468;-81
2023/06/26 07:30:56;;;;;;;1.47;0.80;;;25.80;87.90;;;;;;4980211;28;20483;-80
2023/06/26 07:33:23;;;;;;;1.50;0.80;;;26.00;87.10;;;;;;4971655;28;20465;-81
2023/06/26 07:35:50;;;;;;;1.50;0.90;;;26.20;86.80;;;;;;4985426;28;21182;-84
2023/06/26 07:38:19;;;;;;;1.50;0.90;;;26.40;86.70;;;;;;4990408;28;20476;-82
2023/06/26 07:40:46;;;;;;;1.50;0.90;;;26.70;86.30;;;;;;4991442;28;21046;-82
2023/06/26 07:43:13;;;;;;;1.50;0.80;;;27.00;85.50;;;;;;4962568;28;20490;-82
2023/06/26 07:45:41;;;;;;;1.47;0.90;;;27.30;83.90;;;;;;4996522;28;20513;-82
2023/06/26 07:48:09;;;;;;;1.40;0.80;;;27.40;83.90;;;;;;4977999;28;20488;-83
2023/06/26 07:50:36;;;;;;;1.43;0.90;;;27.60;83.70;;;;;;4996820;28;20491;-82
2023/06/26 07:53:05;;;;;;;1.50;0.80;;;27.70;82.60;;;;;;4981619;28;20861;-81
2023/06/26 07:55:33;;;;;;;1.50;0.80;;;27.80;82.40;;;;;;4994878;28;20468;-81
2023/06/26 07:58:01;;;;;;;1.47;0.90;;;27.90;81.70;;;;;;4981912;28;20483;-82
2023/06/26 08:00:29;;;;;;;1.47;0.80;;;27.90;81.70;;;;;;4990313;28;20496;-80
2023/06/26 08:02:57;;;;;;;1.40;0.80;;;27.70;81.70;;;;;;4978201;28;20495;-81
2023/06/26 08:05:24;;;;;;;1.43;0.80;;;27.50;82.40;;;;;;4987750;28;20471;-81
2023/06/26 08:07:51;;;;;;;1.50;0.90;;;27.40;82.90;;;;;;4976148;28;20500;-81
2023/06/26 08:10:19;;;;;;;1.43;0.80;;;27.50;83.60;;;;;;4994079;28;20875;-80
2023/06/26 08:12:52;;;;;;;1.50;0.80;;;27.60;82.30;;;;;;4968091;28;20480;-82
2023/06/26 08:15:20;;;;;;;1.47;0.90;;;27.60;82.60;;;;;;4992970;28;21001;-81
2023/06/26 08:17:48;;;;;;;1.47;0.80;;;27.70;82.70;;;;;;4974066;28;20487;-81
2023/06/26 08:20:15;;;;;;;1.50;0.80;;;27.90;81.40;;;;;;4986075;28;21017;-79
2023/06/26 08:22:43;;;;;;;1.40;0.80;;;27.90;81.50;;;;;;4977930;28;20476;-79
2023/06/26 08:25:10;;;;;;;1.40;0.80;;;27.80;81.80;;;;;;4991661;28;20524;-78
2023/06/26 08:27:38;;;;;;;1.47;0.80;;;27.70;82.80;;;;;;4962709;28;20477;-78
2023/06/26 08:30:08;;;;;;;1.50;0.80;;;27.60;82.90;;;;;;4985421;28;20569;-80
2023/06/26 08:32:36;;;;;;;1.47;0.80;;;27.50;82.80;;;;;;4975707;28;20994;-80
2023/06/26 08:35:04;;;;;;;1.43;0.80;;;27.40;83.40;;;;;;4994308;28;20528;-78
2023/06/26 08:37:32;;;;;;;1.47;0.80;;;27.60;82.70;;;;;;4976637;28;20538;-82
2023/06/26 08:39:59;;;;;;;1.47;0.80;;;27.80;82.20;;;;;;4989516;28;20492;-79
2023/06/26 08:42:26;;;;;;;1.43;0.80;;;27.80;81.90;;;;;;4976715;28;20547;-80
2023/06/26 08:44:53;;;;;;;1.50;0.80;;;27.70;82.60;;;;;;4987598;28;20475;-79
2023/06/26 08:47:22;;;;;;;1.43;0.80;;;27.60;82.60;;;;;;4979749;28;20495;-79
2023/06/26 08:50:09;;;;;;;1.40;0.80;;;27.40;82.80;;;;;;4990819;28;20495;-82
2023/06/26 08:52:38;;;;;;;1.47;0.80;;;27.30;82.40;;;;;;4978365;28;20531;-81
2023/06/26 08:55:10;;;;;;;1.43;0.80;;;27.30;83.70;;;;;;4989212;28;20461;-81
2023/06/26 08:57:37;;;;;;;1.50;0.80;;;27.50;82.50;;;;;;4978366;28;20495;-83
2023/06/26 09:00:06;;;;;;;1.47;0.80;;;27.70;82.00;;;;;;4988904;28;20528;-80
2023/06/26 09:02:35;;;;;;;1.43;0.80;;;27.90;81.40;;;;;;4969481;28;20480;-79
2023/06/26 09:05:03;;;;;;;1.47;0.80;;;27.90;81.20;;;;;;4990743;28;20467;-80
2023/06/26 09:07:30;;;;;;;1.50;1.00;;;28.10;81.20;;;;;;4975993;28;20484;-84
2023/06/26 09:09:57;;;;;;;1.47;0.80;;;28.20;80.30;;;;;;4991506;28;20469;-83
2023/06/26 09:12:24;;;;;;;1.47;0.80;;;28.30;79.90;;;;;;4978552;28;20484;-80
2023/06/26 09:14:51;;;;;;;1.47;0.90;;;28.30;78.70;;;;;;4990575;28;20993;-81
2023/06/26 09:17:19;;;;;;;1.43;0.83;;;28.30;79.20;;;;;;4969186;28;21005;-79
2023/06/26 09:19:49;;;;;;;1.47;0.80;;;28.20;79.20;;;;;;4987369;28;20488;-78
2023/06/26 09:22:17;;;;;;;1.47;0.80;;;28.30;79.60;;;;;;4975791;28;20998;-79
2023/06/26 09:24:45;;;;;;;1.40;0.80;;;28.30;79.20;;;;;;4992517;28;20543;-82
2023/06/26 09:27:12;;;;;;;1.50;0.90;;;28.40;78.40;;;;;;4981258;28;20488;-84
2023/06/26 09:29:39;;;;;;;1.43;0.80;;;28.60;78.00;;;;;;4994685;28;20469;-80
2023/06/26 09:32:08;;;;;;;1.50;0.90;;;28.70;77.10;;;;;;4978923;28;20516;-80
2023/06/26 09:34:35;;;;;;;1.43;0.80;;;28.70;78.10;;;;;;4987646;28;20468;-82
2023/06/26 09:37:05;;;;;;;1.43;0.80;;;28.80;77.60;;;;;;4980711;28;20488;-79
2023/06/26 09:39:32;;;;;;;1.43;0.80;;;28.80;77.40;;;;;;4987104;28;20488;-80
2023/06/26 09:42:11;;;;;;;1.50;0.90;;;28.70;77.90;;;;;;4992796;28;20866;-81
2023/06/26 09:44:44;;;;;;;1.43;0.80;;;28.90;77.20;;;;;;5003778;28;20760;-86
2023/06/26 09:47:12;;;;;;;1.47;0.80;;;28.90;76.60;;;;;;4990748;28;20468;-85
2023/06/26 09:49:44;;;;;;;1.47;0.80;;;28.90;76.20;;;;;;5000881;28;20637;-81
2023/06/26 09:52:26;;;;;;;1.47;0.80;;;28.90;75.60;;;;;;4993136;28;20547;-80
2023/06/26 09:55:08;;;;;;;1.47;0.80;;;28.90;75.60;;;;;;5007822;28;20479;-82
2023/06/26 09:57:36;;;;;;;1.50;0.80;;;29.10;75.90;;;;;;4985997;28;20477;-82
2023/06/26 10:00:05;;;;;;;1.47;0.90;;;29.40;75.10;;;;;;4985934;28;21302;-82
2023/06/26 10:02:36;;;;;;;1.47;0.90;;;29.50;74.30;;;;;;4971927;28;20596;-80
2023/06/26 10:05:07;;;;;;;1.43;0.80;;;29.50;74.60;;;;;;4986535;28;21093;-81
2023/06/26 10:07:46;;;;;;;1.47;0.80;;;29.50;74.30;;;;;;4975005;28;20530;-81
2023/06/26 10:10:15;;;;;;;1.47;0.80;;;29.40;74.40;;;;;;4991164;28;20491;-81
2023/06/26 10:12:47;;;;;;;1.70;1.53;;;29.40;75.10;;;;;;4972011;28;21140;-80
2023/06/26 10:15:16;;;;;;;1.40;0.80;;;29.40;74.10;;;;;;4990654;28;20463;-80
2023/06/26 10:17:46;;;;;;;1.47;0.80;;;29.40;73.70;;;;;;4975063;28;20483;-79
2023/06/26 10:20:15;;;;;;;1.47;0.80;;;29.60;72.80;;;;;;4986991;28;20646;-79
2023/06/26 10:22:47;;;;;;;1.43;0.80;;;29.70;72.90;;;;;;4953054;28;20545;-80
2023/06/26 10:25:19;;;;;;;1.43;0.90;;;29.90;72.20;;;;;;4987638;28;20470;-82
2023/06/26 10:27:53;;;;;;;1.47;0.80;;;30.00;71.40;;;;;;4963477;28;20523;-81
2023/06/26 10:30:26;;;;;;;1.47;0.80;;;30.20;71.00;;;;;;4991157;28;20566;-84
2023/06/26 10:32:53;;;;;;;1.40;0.80;;;30.40;70.70;;;;;;4972214;28;21068;-81
2023/06/26 10:35:21;;;;;;;1.47;0.90;;;30.70;70.50;;;;;;4990780;28;20472;-80
2023/06/26 10:37:51;;;;;;;1.47;0.80;;;30.70;69.90;;;;;;4971171;28;20488;-82
2023/06/26 10:40:25;;;;;;;1.50;0.90;;;30.40;69.90;;;;;;4992082;28;20924;-82
2023/06/26 10:43:07;;;;;;;1.43;0.80;;;30.40;71.00;;;;;;4983336;28;20493;-82
2023/06/26 10:45:35;;;;;;;1.40;0.80;;;30.40;70.80;;;;;;4993266;28;20900;-81
2023/06/26 10:48:04;;;;;;;1.40;0.80;;;30.20;70.50;;;;;;4981209;28;20479;-81
2023/06/26 10:50:35;;;;;;;1.43;0.80;;;30.00;69.60;;;;;;4989290;28;20487;-81
2023/06/26 10:53:18;;;;;;;1.47;0.90;;;30.10;69.80;;;;;;4975653;28;20504;-84
2023/06/26 10:55:50;;;;;;;1.47;0.80;;;30.20;68.40;;;;;;4994831;28;20798;-82
2023/06/26 10:58:31;;;;;;;1.40;0.80;;;30.50;69.10;;;;;;4966799;28;20484;-82
2023/06/26 11:01:21;;;;;;;1.50;0.80;;;30.80;68.10;;;;;;4995981;28;20633;-82
2023/06/26 11:03:50;;;;;;;1.47;0.80;;;31.00;68.10;;;;;;4995958;28;20486;-82
2023/06/26 11:06:21;;;;;;;1.50;0.80;;;31.20;67.60;;;;;;4981732;28;20476;-81
2023/06/26 11:08:51;;;;;;;1.47;0.80;;;31.50;65.80;;;;;;4990274;28;20228;-82
2023/06/26 11:11:19;;;;;;;1.40;0.80;;;31.40;65.20;;;;;;4977713;28;20620;-82
2023/06/26 11:13:49;;;;;;;1.50;0.80;;;31.30;64.30;;;;;;4990554;28;20215;-85
2023/06/26 11:16:17;;;;;;;1.60;0.90;;;31.30;65.00;;;;;;4977366;28;20308;-83
2023/06/26 11:18:46;;;;;;;1.50;0.80;;;31.40;65.20;;;;;;4970173;28;20218;-81
2023/06/26 11:21:14;;;;;;;1.40;0.80;;;31.50;65.00;;;;;;4978291;28;20237;-83
2023/06/26 11:23:42;;;;;;;1.40;0.80;;;31.50;66.30;;;;;;4983626;28;20415;-82
2023/06/26 11:26:21;;;;;;;1.43;0.80;;;31.40;65.30;;;;;;4981917;28;20245;-81
2023/06/26 11:28:50;;;;;;;1.50;0.90;;;31.00;65.80;;;;;;4989746;28;20237;-81
2023/06/26 11:31:29;;;;;;;1.50;0.90;;;30.90;66.10;;;;;;4975752;28;20319;-83
2023/06/26 11:33:58;;;;;;;1.40;0.80;;;31.00;65.70;;;;;;4986806;28;20855;-84
2023/06/26 11:36:26;;;;;;;1.40;0.80;;;31.10;64.60;;;;;;4983507;28;20228;-81
2023/06/26 11:38:57;;;;;;;1.40;0.80;;;31.30;63.20;;;;;;4996268;28;20205;-81
2023/06/26 11:41:27;;;;;;;1.43;0.80;;;31.50;61.20;;;;;;4981625;28;20295;-83
2023/06/26 11:44:01;;;;;;;1.43;0.80;;;31.60;60.80;;;;;;4984247;28;20296;-82
2023/06/26 11:46:29;;;;;;;1.50;0.80;;;31.70;61.00;;;;;;4974867;28;20267;-82
2023/06/26 11:48:57;;;;;;;1.43;0.80;;;31.80;61.40;;;;;;4989549;28;20288;-81
2023/06/26 11:51:24;;;;;;;1.40;0.80;;;31.90;62.10;;;;;;4983869;28;20294;-81
2023/06/26 11:53:54;;;;;;;1.43;0.80;;;32.00;62.00;;;;;;4989234;28;20720;-82
2023/06/26 11:56:22;;;;;;;1.43;0.80;;;31.90;62.30;;;;;;4978987;28;20221;-82
2023/06/26 11:59:03;;;;;;;1.43;0.83;;;31.50;62.50;;;;;;4984244;28;20209;-80
2023/06/26 12:01:34;;;;;;;1.47;0.80;;;31.10;63.40;;;;;;4978265;28;20237;-82
2023/06/26 12:04:03;;;;;;;1.47;0.90;;;31.00;64.20;;;;;;4988068;28;20216;-80
2023/06/26 12:06:33;;;;;;;1.50;0.90;;;31.00;64.00;;;;;;4975767;28;20688;-82
2023/06/26 12:09:03;;;;;;;1.47;0.80;;;30.80;64.20;;;;;;4984593;28;20323;-83
2023/06/26 12:11:31;;;;;;;1.43;0.80;;;30.70;64.60;;;;;;4978815;28;20229;-80
2023/06/26 12:14:01;;;;;;;1.40;0.80;;;30.50;65.80;;;;;;4990316;28;20297;-81
2023/06/26 12:16:30;;;;;;;1.40;0.80;;;30.50;64.40;;;;;;4982748;28;20228;-81
2023/06/26 12:19:00;;;;;;;1.43;0.80;;;30.30;64.40;;;;;;4986103;28;20200;-83
2023/06/26 12:21:47;;;;;;;1.47;0.80;;;30.20;64.20;;;;;;4980257;28;20499;-82
2023/06/26 12:24:16;;;;;;;1.47;0.80;;;30.10;64.40;;;;;;4994259;28;20686;-82
2023/06/26 12:26:45;;;;;;;1.47;0.90;;;30.20;65.50;;;;;;4982334;28;20237;-81
2023/06/26 12:29:17;;;;;;;1.43;0.80;;;30.40;65.40;;;;;;4993446;28;20228;-84
2023/06/26 12:31:46;;;;;;;1.50;0.80;;;30.50;64.70;;;;;;4976368;28;20628;-81
2023/06/26 12:34:17;;;;;;;1.50;0.93;;;30.20;64.70;;;;;;4986241;28;20476;-81
2023/06/26 12:36:45;;;;;;;1.47;0.80;;;29.90;65.90;;;;;;4976907;28;20500;-81
2023/06/26 12:39:13;;;;;;;1.47;0.80;;;29.50;64.90;;;;;;4988341;28;20983;-81
2023/06/26 12:41:48;;;;;;;1.50;0.80;;;29.30;65.00;;;;;;4968160;28;20486;-81
2023/06/26 12:44:21;;;;;;;1.50;0.80;;;29.20;65.20;;;;;;4978359;28;20532;-80
2023/06/26 12:46:50;;;;;;;1.40;0.83;;;28.90;65.10;;;;;;4977391;28;20535;-83
2023/06/26 12:49:17;;;;;;;1.47;0.80;;;28.80;65.60;;;;;;4987863;28;20552;-81
2023/06/26 12:51:45;;;;;;;1.43;0.80;;;28.80;65.00;;;;;;4971314;28;20966;-81
2023/06/26 12:54:12;;;;;;;1.40;0.80;;;29.00;65.10;;;;;;4981942;28;20467;-83
2023/06/26 12:56:39;;;;;;;1.50;0.80;;;29.20;62.80;;;;;;4982694;28;20543;-83
2023/06/26 12:59:09;;;;;;;1.47;0.80;;;29.50;62.90;;;;;;4991094;28;20468;-85
2023/06/26 13:01:39;;;;;;;1.43;0.80;;;29.90;63.10;;;;;;4975020;28;20504;-82